sensor_id;sensor_type;location;lat;lon;timestamp;pressure;altitude;pressure_sealevel;temperature;humidity
11444;BME280;5778;47.856;12.154;2022-11-15T00:01:16;96320.28;;;2.34;100.00
11444;BME280;5778;47.856;12.154;2022-11-15T00:04:04;96317.88;;;2.33;100.00
11444;BME280;5778;47.856;12.154;2022-11-15T00:06:49;96317.06;;;2.39;100.00
11444;BME280;5778;47.856;12.154;2022-11-15T00:09:34;96312.25;;;2.62;100.00
11444;BME280;5778;47.856;12.154;2022-11-15T00:12:20;96323.72;;;2.61;100.00
11444;BME280;5778;47.856;12.154;2022-11-15T00:15:06;96317.69;;;2.54;100.00
11444;BME280;5778;47.856;12.154;2022-11-15T00:17:52;96319.91;;;2.57;100.00
11444;BME280;5778;47.856;12.154;2022-11-15T00:20:38;96320.72;;;2.51;100.00
11444;BME280;5778;47.856;12.154;2022-11-15T00:23:25;96320.91;;;2.43;100.00
11444;BME280;5778;47.856;12.154;2022-11-15T00:26:12;96324.94;;;2.26;100.00
11444;BME280;5778;47.856;12.154;2022-11-15T00:28:58;96323.91;;;2.27;100.00
11444;BME280;5778;47.856;12.154;2022-11-15T00:31:44;96326.56;;;2.40;100.00
11444;BME280;5778;47.856;12.154;2022-11-15T00:34:30;96317.69;;;2.54;100.00
11444;BME280;5778;47.856;12.154;2022-11-15T00:37:16;96318.88;;;2.45;100.00
11444;BME280;5778;47.856;12.154;2022-11-15T00:40:02;96315.44;;;2.38;100.00
11444;BME280;5778;47.856;12.154;2022-11-15T00:42:48;96309.41;;;2.31;100.00
11444;BME280;5778;47.856;12.154;2022-11-15T00:45:34;96314.84;;;2.36;100.00
11444;BME280;5778;47.856;12.154;2022-11-15T00:48:19;96308.78;;;2.35;100.00
11444;BME280;5778;47.856;12.154;2022-11-15T00:51:05;96299.31;;;2.21;100.00
11444;BME280;5778;47.856;12.154;2022-11-15T00:53:53;96304.31;;;1.97;100.00
11444;BME280;5778;47.856;12.154;2022-11-15T00:56:38;96302.06;;;1.81;100.00
11444;BME280;5778;47.856;12.154;2022-11-15T00:59:24;96300.84;;;1.90;100.00
11444;BME280;5778;47.856;12.154;2022-11-15T01:02:09;96294.03;;;1.95;100.00
11444;BME280;5778;47.856;12.154;2022-11-15T01:04:54;96296.44;;;1.90;100.00
11444;BME280;5778;47.856;12.154;2022-11-15T01:07:40;96298.44;;;1.95;100.00
11444;BME280;5778;47.856;12.154;2022-11-15T01:10:26;96300.06;;;1.96;100.00
11444;BME280;5778;47.856;12.154;2022-11-15T01:13:12;96291.78;;;1.86;100.00
11444;BME280;5778;47.856;12.154;2022-11-15T01:15:59;96289.19;;;1.86;100.00
11444;BME280;5778;47.856;12.154;2022-11-15T01:18:44;96278.69;;;1.86;100.00
11444;BME280;5778;47.856;12.154;2022-11-15T01:21:30;96283.88;;;1.73;100.00
11444;BME280;5778;47.856;12.154;2022-11-15T01:24:15;96271.41;;;1.75;100.00
11444;BME280;5778;47.856;12.154;2022-11-15T01:27:03;96277.22;;;1.70;100.00
11444;BME280;5778;47.856;12.154;2022-11-15T01:29:48;96272.22;;;1.82;100.00
11444;BME280;5778;47.856;12.154;2022-11-15T01:32:33;96274.84;;;1.95;100.00
11444;BME280;5778;47.856;12.154;2022-11-15T01:35:20;96272.25;;;1.88;100.00
11444;BME280;5778;47.856;12.154;2022-11-15T01:38:05;96276.69;;;1.94;100.00
11444;BME280;5778;47.856;12.154;2022-11-15T01:40:50;96264.56;;;1.87;100.00
11444;BME280;5778;47.856;12.154;2022-11-15T01:43:39;96272.19;;;1.75;100.00
11444;BME280;5778;47.856;12.154;2022-11-15T01:46:28;96256.09;;;1.78;100.00
11444;BME280;5778;47.856;12.154;2022-11-15T01:49:17;96257.47;;;1.68;100.00
11444;BME280;5778;47.856;12.154;2022-11-15T01:52:08;96245.59;;;1.72;100.00
11444;BME280;5778;47.856;12.154;2022-11-15T01:54:59;96244.97;;;1.63;100.00
11444;BME280;5778;47.856;12.154;2022-11-15T01:57:47;96243.56;;;1.74;100.00
11444;BME280;5778;47.856;12.154;2022-11-15T02:00:36;96241.34;;;1.58;100.00
11444;BME280;5778;47.856;12.154;2022-11-15T02:03:26;96235.09;;;1.59;100.00
11444;BME280;5778;47.856;12.154;2022-11-15T02:06:14;96233.47;;;1.58;100.00
11444;BME280;5778;47.856;12.154;2022-11-15T02:09:00;96221.13;;;1.39;100.00
11444;BME280;5778;47.856;12.154;2022-11-15T02:11:46;96215.66;;;1.34;100.00
11444;BME280;5778;47.856;12.154;2022-11-15T02:14:33;96229.00;;;1.45;100.00
11444;BME280;5778;47.856;12.154;2022-11-15T02:17:37;96227.78;;;1.41;100.00
11444;BME280;5778;47.856;12.154;2022-11-15T02:20:49;96233.84;;;1.42;100.00
11444;BME280;5778;47.856;12.154;2022-11-15T02:24:17;96225.78;;;1.50;100.00
11444;BME280;5778;47.856;12.154;2022-11-15T02:27:28;96230.00;;;1.38;100.00
11444;BME280;5778;47.856;12.154;2022-11-15T02:30:24;96219.28;;;1.33;100.00
11444;BME280;5778;47.856;12.154;2022-11-15T02:33:21;96214.66;;;1.28;100.00
11444;BME280;5778;47.856;12.154;2022-11-15T02:36:14;96203.94;;;1.17;100.00
11444;BME280;5778;47.856;12.154;2022-11-15T02:39:09;96202.97;;;1.31;100.00
11444;BME280;5778;47.856;12.154;2022-11-15T02:42:00;96202.97;;;1.31;100.00
11444;BME280;5778;47.856;12.154;2022-11-15T02:44:48;96199.72;;;1.29;100.00
11444;BME280;5778;47.856;12.154;2022-11-15T02:47:39;96195.91;;;1.31;100.00
11444;BME280;5778;47.856;12.154;2022-11-15T02:50:28;96187.84;;;1.33;100.00
11444;BME280;5778;47.856;12.154;2022-11-15T02:53:15;96193.13;;;1.39;100.00
11444;BME280;5778;47.856;12.154;2022-11-15T02:56:01;96188.44;;;1.22;100.00
11444;BME280;5778;47.856;12.154;2022-11-15T02:59:02;96182.97;;;1.17;100.00
11444;BME280;5778;47.856;12.154;2022-11-15T03:02:02;96188.66;;;1.27;100.00
11444;BME280;5778;47.856;12.154;2022-11-15T03:04:56;96177.97;;;1.22;100.00
11444;BME280;5778;47.856;12.154;2022-11-15T03:07:50;96178.38;;;1.32;100.00
11444;BME280;5778;47.856;12.154;2022-11-15T03:10:42;96178.94;;;1.14;100.00
11444;BME280;5778;47.856;12.154;2022-11-15T03:13:36;96171.91;;;1.15;100.00
11444;BME280;5778;47.856;12.154;2022-11-15T03:16:27;96176.94;;;1.10;100.00
11444;BME280;5778;47.856;12.154;2022-11-15T03:19:16;96171.34;;;1.26;100.00
11444;BME280;5778;47.856;12.154;2022-11-15T03:22:08;96173.72;;;1.14;100.00
11444;BME280;5778;47.856;12.154;2022-11-15T03:24:57;96168.09;;;1.17;100.00
11444;BME280;5778;47.856;12.154;2022-11-15T03:27:46;96167.28;;;1.30;100.00
11444;BME280;5778;47.856;12.154;2022-11-15T03:30:36;96165.28;;;1.32;100.00
11444;BME280;5778;47.856;12.154;2022-11-15T03:33:22;96165.09;;;1.27;100.00
11444;BME280;5778;47.856;12.154;2022-11-15T03:36:08;96157.78;;;1.22;100.00
11444;BME280;5778;47.856;12.154;2022-11-15T03:38:58;96155.16;;;1.09;100.00
11444;BME280;5778;47.856;12.154;2022-11-15T03:41:49;96152.28;;;0.98;100.00
11444;BME280;5778;47.856;12.154;2022-11-15T03:44:40;96148.44;;;0.87;100.00
11444;BME280;5778;47.856;12.154;2022-11-15T03:47:34;96144.03;;;0.88;100.00
11444;BME280;5778;47.856;12.154;2022-11-15T03:50:22;96144.84;;;0.95;100.00
11444;BME280;5778;47.856;12.154;2022-11-15T03:53:09;96136.56;;;0.85;100.00
11444;BME280;5778;47.856;12.154;2022-11-15T03:55:56;96128.72;;;0.85;100.00
11444;BME280;5778;47.856;12.154;2022-11-15T03:58:42;96122.09;;;0.89;100.00
11444;BME280;5778;47.856;12.154;2022-11-15T04:01:27;96128.53;;;0.93;100.00
11444;BME280;5778;47.856;12.154;2022-11-15T04:04:13;96129.16;;;0.95;100.00
11444;BME280;5778;47.856;12.154;2022-11-15T04:06:59;96130.16;;;0.94;100.00
11444;BME280;5778;47.856;12.154;2022-11-15T04:09:44;96127.13;;;0.90;100.00
11444;BME280;5778;47.856;12.154;2022-11-15T04:12:50;96120.25;;;0.83;100.00
11444;BME280;5778;47.856;12.154;2022-11-15T04:15:37;96128.09;;;0.89;100.00
11444;BME280;5778;47.856;12.154;2022-11-15T04:18:22;96124.03;;;0.74;100.00
11444;BME280;5778;47.856;12.154;2022-11-15T04:21:08;96121.19;;;0.69;100.00
11444;BME280;5778;47.856;12.154;2022-11-15T04:24:11;96111.19;;;0.79;100.00
11444;BME280;5778;47.856;12.154;2022-11-15T04:27:00;96112.19;;;0.78;100.00
11444;BME280;5778;47.856;12.154;2022-11-15T04:29:46;96114.81;;;0.78;100.00
11444;BME280;5778;47.856;12.154;2022-11-15T04:32:32;96110.75;;;0.75;100.00
11444;BME280;5778;47.856;12.154;2022-11-15T04:35:17;96104.50;;;0.70;100.00
11444;BME280;5778;47.856;12.154;2022-11-15T04:38:04;96111.94;;;0.60;100.00
11444;BME280;5778;47.856;12.154;2022-11-15T04:40:50;96113.97;;;0.71;100.00
11444;BME280;5778;47.856;12.154;2022-11-15T04:43:35;96103.69;;;0.76;100.00
11444;BME280;5778;47.856;12.154;2022-11-15T04:46:23;96105.53;;;0.75;100.00
11444;BME280;5778;47.856;12.154;2022-11-15T04:49:09;96109.63;;;0.97;100.00
11444;BME280;5778;47.856;12.154;2022-11-15T04:52:05;96108.81;;;0.90;100.00
11444;BME280;5778;47.856;12.154;2022-11-15T04:54:51;96111.63;;;0.95;100.00
11444;BME280;5778;47.856;12.154;2022-11-15T04:57:37;96098.69;;;0.81;100.00
11444;BME280;5778;47.856;12.154;2022-11-15T05:00:22;96091.06;;;0.86;100.00
11444;BME280;5778;47.856;12.154;2022-11-15T05:03:10;96091.47;;;0.89;100.00
11444;BME280;5778;47.856;12.154;2022-11-15T05:06:13;96084.00;;;0.80;100.00
11444;BME280;5778;47.856;12.154;2022-11-15T05:08:58;96084.56;;;0.69;100.00
11444;BME280;5778;47.856;12.154;2022-11-15T05:11:47;96074.31;;;0.74;100.00
11444;BME280;5778;47.856;12.154;2022-11-15T05:14:32;96076.13;;;0.67;100.00
11444;BME280;5778;47.856;12.154;2022-11-15T05:17:18;96074.31;;;0.74;100.00
11444;BME280;5778;47.856;12.154;2022-11-15T05:20:06;96077.56;;;0.82;100.00
11444;BME280;5778;47.856;12.154;2022-11-15T05:22:53;96083.19;;;0.86;100.00
11444;BME280;5778;47.856;12.154;2022-11-15T05:25:41;96090.47;;;0.97;100.00
11444;BME280;5778;47.856;12.154;2022-11-15T05:28:27;96077.94;;;0.73;100.00
11444;BME280;5778;47.856;12.154;2022-11-15T05:31:14;96074.53;;;0.79;100.00
11444;BME280;5778;47.856;12.154;2022-11-15T05:34:04;96066.38;;;0.41;100.00
11444;BME280;5778;47.856;12.154;2022-11-15T05:36:53;96069.00;;;0.48;100.00
11444;BME280;5778;47.856;12.154;2022-11-15T05:39:38;96073.78;;;0.31;100.00
11444;BME280;5778;47.856;12.154;2022-11-15T05:42:25;96077.28;;;0.58;100.00
11444;BME280;5778;47.856;12.154;2022-11-15T05:45:12;96075.31;;;0.66;100.00
11444;BME280;5778;47.856;12.154;2022-11-15T05:47:59;96071.69;;;0.74;100.00
11444;BME280;5778;47.856;12.154;2022-11-15T05:50:46;96072.06;;;0.58;100.00
11444;BME280;5778;47.856;12.154;2022-11-15T05:53:35;96076.13;;;0.67;100.00
11444;BME280;5778;47.856;12.154;2022-11-15T05:56:21;96068.88;;;0.69;100.00
11444;BME280;5778;47.856;12.154;2022-11-15T05:59:08;96060.28;;;0.34;100.00
11444;BME280;5778;47.856;12.154;2022-11-15T06:01:54;96074.00;;;0.43;100.00
11444;BME280;5778;47.856;12.154;2022-11-15T06:04:39;96072.81;;;0.39;100.00
11444;BME280;5778;47.856;12.154;2022-11-15T06:07:25;96071.84;;;0.53;100.00
11444;BME280;5778;47.856;12.154;2022-11-15T06:10:12;96073.69;;;0.65;100.00
11444;BME280;5778;47.856;12.154;2022-11-15T06:12:58;96066.66;;;0.66;100.00
11444;BME280;5778;47.856;12.154;2022-11-15T06:15:44;96054.78;;;0.63;100.00
11444;BME280;5778;47.856;12.154;2022-11-15T06:18:32;96064.88;;;0.73;100.00
11444;BME280;5778;47.856;12.154;2022-11-15T06:21:18;96053.81;;;0.71;100.00
11444;BME280;5778;47.856;12.154;2022-11-15T06:24:05;96057.56;;;0.55;100.00
11444;BME280;5778;47.856;12.154;2022-11-15T06:26:53;96056.97;;;0.53;100.00
11444;BME280;5778;47.856;12.154;2022-11-15T06:29:38;96060.38;;;0.54;100.00
11444;BME280;5778;47.856;12.154;2022-11-15T06:32:23;96054.16;;;0.61;100.00
11444;BME280;5778;47.856;12.154;2022-11-15T06:35:09;96055.75;;;0.56;100.00
11444;BME280;5778;47.856;12.154;2022-11-15T06:37:55;96056.78;;;0.55;100.00
11444;BME280;5778;47.856;12.154;2022-11-15T06:40:40;96048.25;;;0.40;100.00
11444;BME280;5778;47.856;12.154;2022-11-15T06:43:27;96045.69;;;0.46;100.00
11444;BME280;5778;47.856;12.154;2022-11-15T06:46:12;96045.28;;;0.56;100.00
11444;BME280;5778;47.856;12.154;2022-11-15T06:48:58;96050.34;;;0.64;100.00
11444;BME280;5778;47.856;12.154;2022-11-15T06:51:43;96050.38;;;0.77;100.00
11444;BME280;5778;47.856;12.154;2022-11-15T06:54:30;96054.00;;;0.82;100.00
11444;BME280;5778;47.856;12.154;2022-11-15T06:57:15;96048.59;;;0.84;100.00
11444;BME280;5778;47.856;12.154;2022-11-15T07:00:04;96054.03;;;1.02;100.00
11444;BME280;5778;47.856;12.154;2022-11-15T07:02:50;96049.22;;;1.05;100.00
11444;BME280;5778;47.856;12.154;2022-11-15T07:05:36;96054.47;;;1.18;100.00
11444;BME280;5778;47.856;12.154;2022-11-15T07:08:21;96054.28;;;1.33;100.00
11444;BME280;5778;47.856;12.154;2022-11-15T07:11:07;96062.13;;;1.46;100.00
11444;BME280;5778;47.856;12.154;2022-11-15T07:13:53;96058.31;;;1.55;100.00
11444;BME280;5778;47.856;12.154;2022-11-15T07:16:40;96067.16;;;1.67;100.00
11444;BME280;5778;47.856;12.154;2022-11-15T07:19:25;96059.88;;;1.75;100.00
11444;BME280;5778;47.856;12.154;2022-11-15T07:22:11;96053.22;;;1.86;100.00
11444;BME280;5778;47.856;12.154;2022-11-15T07:24:56;96046.78;;;1.75;100.00
11444;BME280;5778;47.856;12.154;2022-11-15T07:27:41;96042.31;;;1.89;100.00
11444;BME280;5778;47.856;12.154;2022-11-15T07:30:28;96037.69;;;1.91;100.00
11444;BME280;5778;47.856;12.154;2022-11-15T07:33:15;96032.22;;;1.99;100.00
11444;BME280;5778;47.856;12.154;2022-11-15T07:36:01;96037.38;;;2.25;100.00
11444;BME280;5778;47.856;12.154;2022-11-15T07:38:47;96028.44;;;2.39;100.00
11444;BME280;5778;47.856;12.154;2022-11-15T07:41:32;96029.34;;;2.64;100.00
11444;BME280;5778;47.856;12.154;2022-11-15T07:44:17;96042.38;;;2.77;100.00
11444;BME280;5778;47.856;12.154;2022-11-15T07:47:02;96037.88;;;2.90;100.00
11444;BME280;5778;47.856;12.154;2022-11-15T07:49:49;96038.81;;;3.02;100.00
11444;BME280;5778;47.856;12.154;2022-11-15T07:52:36;96039.28;;;3.24;100.00
11444;BME280;5778;47.856;12.154;2022-11-15T07:55:22;96029.25;;;3.39;100.00
11444;BME280;5778;47.856;12.154;2022-11-15T07:58:09;96032.66;;;3.39;100.00
11444;BME280;5778;47.856;12.154;2022-11-15T08:00:55;96033.03;;;3.43;100.00
11444;BME280;5778;47.856;12.154;2022-11-15T08:03:41;96036.69;;;3.66;100.00
11444;BME280;5778;47.856;12.154;2022-11-15T08:06:32;96030.47;;;3.85;100.00
11444;BME280;5778;47.856;12.154;2022-11-15T08:09:17;96027.47;;;4.00;100.00
11444;BME280;5778;47.856;12.154;2022-11-15T08:12:03;96026.91;;;4.16;100.00
11444;BME280;5778;47.856;12.154;2022-11-15T08:14:48;96026.66;;;4.35;100.00
11444;BME280;5778;47.856;12.154;2022-11-15T08:17:33;96019.56;;;4.54;100.00
11444;BME280;5778;47.856;12.154;2022-11-15T08:20:19;96015.06;;;4.72;100.00
11444;BME280;5778;47.856;12.154;2022-11-15T08:23:07;96013.06;;;4.86;100.00
11444;BME280;5778;47.856;12.154;2022-11-15T08:25:59;96005.09;;;5.04;100.00
11444;BME280;5778;47.856;12.154;2022-11-15T08:28:45;96004.94;;;5.28;100.00
11444;BME280;5778;47.856;12.154;2022-11-15T08:31:30;96004.72;;;5.53;100.00
11444;BME280;5778;47.856;12.154;2022-11-15T08:34:16;95992.94;;;5.67;100.00
11444;BME280;5778;47.856;12.154;2022-11-15T08:37:02;95996.03;;;5.87;100.00
11444;BME280;5778;47.856;12.154;2022-11-15T08:39:49;95996.13;;;6.15;100.00
11444;BME280;5778;47.856;12.154;2022-11-15T08:42:35;95982.31;;;6.36;100.00
11444;BME280;5778;47.856;12.154;2022-11-15T08:45:21;95975.59;;;6.56;100.00
11444;BME280;5778;47.856;12.154;2022-11-15T08:48:06;95973.94;;;6.67;100.00
11444;BME280;5778;47.856;12.154;2022-11-15T08:50:53;95972.44;;;6.99;100.00
11444;BME280;5778;47.856;12.154;2022-11-15T08:53:41;95970.16;;;7.19;100.00
11444;BME280;5778;47.856;12.154;2022-11-15T08:56:28;95967.88;;;7.44;100.00
11444;BME280;5778;47.856;12.154;2022-11-15T08:59:14;95959.22;;;7.65;100.00
11444;BME280;5778;47.856;12.154;2022-11-15T09:02:00;95947.31;;;7.84;100.00
11444;BME280;5778;47.856;12.154;2022-11-15T09:04:45;95938.38;;;8.06;100.00
11444;BME280;5778;47.856;12.154;2022-11-15T09:07:32;95930.97;;;8.25;100.00
11444;BME280;5778;47.856;12.154;2022-11-15T09:10:18;95925.84;;;8.40;100.00
11444;BME280;5778;47.856;12.154;2022-11-15T09:13:05;95937.41;;;8.55;100.00
11444;BME280;5778;47.856;12.154;2022-11-15T09:15:51;95931.56;;;8.53;100.00
11444;BME280;5778;47.856;12.154;2022-11-15T09:18:37;95925.22;;;8.81;100.00
11444;BME280;5778;47.856;12.154;2022-11-15T09:21:23;95929.41;;;9.03;100.00
11444;BME280;5778;47.856;12.154;2022-11-15T09:24:08;95931.66;;;9.16;100.00
11444;BME280;5778;47.856;12.154;2022-11-15T09:26:54;95927.91;;;8.86;100.00
11444;BME280;5778;47.856;12.154;2022-11-15T09:29:41;95921.75;;;8.54;100.00
11444;BME280;5778;47.856;12.154;2022-11-15T09:32:29;95922.09;;;8.62;100.00
11444;BME280;5778;47.856;12.154;2022-11-15T09:35:15;95911.97;;;8.81;100.00
11444;BME280;5778;47.856;12.154;2022-11-15T09:38:01;95923.75;;;8.42;100.00
11444;BME280;5778;47.856;12.154;2022-11-15T09:40:50;95916.72;;;8.52;100.00
11444;BME280;5778;47.856;12.154;2022-11-15T09:43:45;95916.06;;;8.67;100.00
11444;BME280;5778;47.856;12.154;2022-11-15T09:46:39;95908.91;;;8.41;100.00
11444;BME280;5778;47.856;12.154;2022-11-15T09:49:33;95908.91;;;8.67;100.00
11444;BME280;5778;47.856;12.154;2022-11-15T09:52:18;95909.81;;;8.78;100.00
11444;BME280;5778;47.856;12.154;2022-11-15T09:54:47;95900.28;;;8.77;100.00
11444;BME280;5778;47.856;12.154;2022-11-15T09:57:19;95889.63;;;8.72;100.00
11444;BME280;5778;47.856;12.154;2022-11-15T10:00:09;95897.91;;;8.80;100.00
11444;BME280;5778;47.856;12.154;2022-11-15T10:03:10;95897.09;;;8.80;100.00
11444;BME280;5778;47.856;12.154;2022-11-15T10:05:41;95900.75;;;8.74;100.00
11444;BME280;5778;47.856;12.154;2022-11-15T10:08:31;95888.19;;;8.91;100.00
11444;BME280;5778;47.856;12.154;2022-11-15T10:11:03;95881.38;;;9.00;100.00
11444;BME280;5778;47.856;12.154;2022-11-15T10:13:34;95867.06;;;9.01;100.00
11444;BME280;5778;47.856;12.154;2022-11-15T10:16:08;95861.72;;;9.74;100.00
11444;BME280;5778;47.856;12.154;2022-11-15T10:18:44;95847.28;;;9.50;100.00
11444;BME280;5778;47.856;12.154;2022-11-15T10:21:19;95842.44;;;9.42;100.00
11444;BME280;5778;47.856;12.154;2022-11-15T10:23:47;95843.34;;;9.16;100.00
11444;BME280;5778;47.856;12.154;2022-11-15T10:26:16;95845.72;;;9.54;100.00
11444;BME280;5778;47.856;12.154;2022-11-15T10:28:43;95850.41;;;9.93;100.00
11444;BME280;5778;47.856;12.154;2022-11-15T10:31:22;95849.28;;;10.31;100.00
11444;BME280;5778;47.856;12.154;2022-11-15T10:33:51;95839.75;;;10.50;100.00
11444;BME280;5778;47.856;12.154;2022-11-15T10:36:21;95832.34;;;10.72;100.00
11444;BME280;5778;47.856;12.154;2022-11-15T10:38:57;95829.44;;;10.83;100.00
11444;BME280;5778;47.856;12.154;2022-11-15T10:41:35;95820.66;;;11.08;100.00
11444;BME280;5778;47.856;12.154;2022-11-15T10:44:22;95815.31;;;10.98;100.00
11444;BME280;5778;47.856;12.154;2022-11-15T10:49:55;95807.31;;;10.73;100.00
11444;BME280;5778;47.856;12.154;2022-11-15T10:52:23;95795.13;;;11.12;100.00
11444;BME280;5778;47.856;12.154;2022-11-15T10:54:54;95791.94;;;10.90;100.00
11444;BME280;5778;47.856;12.154;2022-11-15T10:57:25;95784.91;;;11.59;100.00
11444;BME280;5778;47.856;12.154;2022-11-15T10:59:54;95788.28;;;11.84;100.00
11444;BME280;5778;47.856;12.154;2022-11-15T11:02:29;95783.44;;;12.01;100.00
11444;BME280;5778;47.856;12.154;2022-11-15T11:04:59;95774.47;;;11.77;100.00
11444;BME280;5778;47.856;12.154;2022-11-15T11:07:28;95766.41;;;11.97;100.00
11444;BME280;5778;47.856;12.154;2022-11-15T11:09:58;95758.19;;;12.37;100.00
11444;BME280;5778;47.856;12.154;2022-11-15T11:12:28;95757.38;;;12.75;100.00
11444;BME280;5778;47.856;12.154;2022-11-15T11:14:58;95744.22;;;12.84;100.00
11444;BME280;5778;47.856;12.154;2022-11-15T11:17:32;95736.22;;;12.84;100.00
11444;BME280;5778;47.856;12.154;2022-11-15T11:20:09;95741.06;;;12.82;100.00
11444;BME280;5778;47.856;12.154;2022-11-15T11:22:41;95727.72;;;13.15;100.00
11444;BME280;5778;47.856;12.154;2022-11-15T11:25:22;95723.34;;;13.48;100.00
11444;BME280;5778;47.856;12.154;2022-11-15T11:28:16;95722.31;;;13.67;100.00
11444;BME280;5778;47.856;12.154;2022-11-15T11:30:54;95717.66;;;13.96;100.00
11444;BME280;5778;47.856;12.154;2022-11-15T11:33:29;95723.63;;;14.12;100.00
11444;BME280;5778;47.856;12.154;2022-11-15T11:36:10;95717.41;;;13.74;100.00
11444;BME280;5778;47.856;12.154;2022-11-15T11:38:50;95711.53;;;13.30;100.00
11444;BME280;5778;47.856;12.154;2022-11-15T11:41:28;95709.94;;;13.53;100.00
11444;BME280;5778;47.856;12.154;2022-11-15T11:44:07;95700.06;;;13.30;100.00
11444;BME280;5778;47.856;12.154;2022-11-15T11:46:48;95694.66;;;13.35;100.00
11444;BME280;5778;47.856;12.154;2022-11-15T11:49:19;95686.94;;;13.57;100.00
11444;BME280;5778;47.856;12.154;2022-11-15T11:51:54;95683.44;;;13.80;100.00
11444;BME280;5778;47.856;12.154;2022-11-15T11:54:28;95683.91;;;13.82;100.00
11444;BME280;5778;47.856;12.154;2022-11-15T11:56:59;95680.16;;;14.25;100.00
11444;BME280;5778;47.856;12.154;2022-11-15T11:59:41;95675.06;;;14.42;100.00
11444;BME280;5778;47.856;12.154;2022-11-15T12:02:14;95675.34;;;13.85;100.00
11444;BME280;5778;47.856;12.154;2022-11-15T12:04:44;95672.44;;;13.63;100.00
11444;BME280;5778;47.856;12.154;2022-11-15T12:07:17;95660.75;;;14.14;100.00
11444;BME280;5778;47.856;12.154;2022-11-15T12:09:53;95659.22;;;14.45;100.00
11444;BME280;5778;47.856;12.154;2022-11-15T12:12:29;95659.19;;;14.64;100.00
11444;BME280;5778;47.856;12.154;2022-11-15T12:15:01;95654.19;;;14.89;100.00
11444;BME280;5778;47.856;12.154;2022-11-15T12:17:30;95653.16;;;14.58;100.00
11444;BME280;5778;47.856;12.154;2022-11-15T12:19:59;95654.25;;;14.39;100.00
11444;BME280;5778;47.856;12.154;2022-11-15T12:22:36;95653.25;;;14.35;100.00
11444;BME280;5778;47.856;12.154;2022-11-15T12:25:13;95652.56;;;14.43;100.00
11444;BME280;5778;47.856;12.154;2022-11-15T12:27:45;95649.81;;;14.48;100.00
11444;BME280;5778;47.856;12.154;2022-11-15T12:30:15;95649.78;;;14.66;100.00
11444;BME280;5778;47.856;12.154;2022-11-15T12:32:50;95641.84;;;14.61;100.00
11444;BME280;5778;47.856;12.154;2022-11-15T12:35:24;95640.28;;;14.74;100.00
11444;BME280;5778;47.856;12.154;2022-11-15T12:37:54;95633.69;;;14.98;100.00
11444;BME280;5778;47.856;12.154;2022-11-15T12:40:26;95630.69;;;15.45;100.00
11444;BME280;5778;47.856;12.154;2022-11-15T12:43:03;95625.06;;;14.88;100.00
11444;BME280;5778;47.856;12.154;2022-11-15T12:45:32;95633.63;;;15.57;100.00
11444;BME280;5778;47.856;12.154;2022-11-15T12:54:53;95627.47;;;16.06;100.00
11444;BME280;5778;47.856;12.154;2022-11-15T12:57:38;95617.22;;;15.86;100.00
11444;BME280;5778;47.856;12.154;2022-11-15T13:03:27;95621.22;;;16.10;100.00
11444;BME280;5778;47.856;12.154;2022-11-15T13:08:51;95609.94;;;17.18;100.00
11444;BME280;5778;47.856;12.154;2022-11-15T13:12:01;95607.69;;;16.15;100.00
11444;BME280;5778;47.856;12.154;2022-11-15T13:14:42;95601.25;;;16.60;100.00
11444;BME280;5778;47.856;12.154;2022-11-15T13:17:29;95602.88;;;16.26;100.00
11444;BME280;5778;47.856;12.154;2022-11-15T13:20:18;95595.06;;;16.38;100.00
11444;BME280;5778;47.856;12.154;2022-11-15T13:22:47;95592.34;;;15.58;100.00
11444;BME280;5778;47.856;12.154;2022-11-15T13:25:19;95594.63;;;16.00;100.00
11444;BME280;5778;47.856;12.154;2022-11-15T13:27:50;95586.47;;;16.05;100.00
11444;BME280;5778;47.856;12.154;2022-11-15T13:30:22;95595.56;;;16.18;100.00
11444;BME280;5778;47.856;12.154;2022-11-15T13:32:50;95594.06;;;16.34;100.00
11444;BME280;5778;47.856;12.154;2022-11-15T13:35:21;95596.03;;;15.98;100.00
11444;BME280;5778;47.856;12.154;2022-11-15T13:37:49;95586.38;;;15.75;100.00
11444;BME280;5778;47.856;12.154;2022-11-15T13:40:24;95582.91;;;15.96;100.00
11444;BME280;5778;47.856;12.154;2022-11-15T13:42:55;95591.47;;;15.85;100.00
11444;BME280;5778;47.856;12.154;2022-11-15T13:45:23;95588.09;;;15.93;100.00
11444;BME280;5778;47.856;12.154;2022-11-15T13:47:54;95585.19;;;16.25;100.00
11444;BME280;5778;47.856;12.154;2022-11-15T13:50:26;95587.09;;;16.46;100.00
11444;BME280;5778;47.856;12.154;2022-11-15T13:52:57;95585.63;;;16.62;100.00
11444;BME280;5778;47.856;12.154;2022-11-15T13:55:25;95579.56;;;16.79;100.00
11444;BME280;5778;47.856;12.154;2022-11-15T13:57:57;95575.88;;;17.05;100.00
11444;BME280;5778;47.856;12.154;2022-11-15T14:00:32;95571.91;;;16.20;100.00
11444;BME280;5778;47.856;12.154;2022-11-15T14:03:07;95566.13;;;16.26;100.00
11444;BME280;5778;47.856;12.154;2022-11-15T14:05:35;95561.81;;;16.25;100.00
11444;BME280;5778;47.856;12.154;2022-11-15T14:08:03;95554.94;;;16.11;100.00
11444;BME280;5778;47.856;12.154;2022-11-15T14:10:32;95565.91;;;16.23;100.00
11444;BME280;5778;47.856;12.154;2022-11-15T14:13:03;95560.25;;;16.46;100.00
11444;BME280;5778;47.856;12.154;2022-11-15T14:15:33;95564.06;;;16.45;100.00
11444;BME280;5778;47.856;12.154;2022-11-15T14:18:00;95556.66;;;16.07;100.00
11444;BME280;5778;47.856;12.154;2022-11-15T14:20:35;95556.50;;;15.90;100.00
11444;BME280;5778;47.856;12.154;2022-11-15T14:23:05;95556.16;;;15.83;100.00
11444;BME280;5778;47.856;12.154;2022-11-15T14:25:33;95555.63;;;15.59;100.00
11444;BME280;5778;47.856;12.154;2022-11-15T14:28:14;95551.78;;;15.51;100.00
11444;BME280;5778;47.856;12.154;2022-11-15T14:30:43;95555.56;;;15.50;100.00
11444;BME280;5778;47.856;12.154;2022-11-15T14:33:25;95549.13;;;15.38;100.00
11444;BME280;5778;47.856;12.154;2022-11-15T14:35:55;95556.75;;;15.31;100.00
11444;BME280;5778;47.856;12.154;2022-11-15T14:38:23;95553.66;;;15.24;100.00